Time;durP1;ratioP1;P1;durP2;ratioP2;P2;SDS_P1;SDS_P2;PMS_P1;PMS_P2;Temp;Humidity;BMP_temperature;BMP_pressure;BME280_temperature;BME280_humidity;BME280_pressure;Samples;Min_cycle;Max_cycle;Signal;HPM_P1;HPM_P2
2023/05/08 00:01:15;;;;;;;17.75;14.43;;;;;;;;;;5072641;28;20072;-84
2023/05/08 00:03:41;;;;;;;14.90;13.30;;;;;;;;;;5083174;28;20080;-83
2023/05/08 00:06:07;;;;;;;17.67;15.73;;;;;;;;;;5082738;28;20044;-83
2023/05/08 00:08:33;;;;;;;16.20;14.50;;;;;;;;;;5082508;28;20050;-83
2023/05/08 00:11:00;;;;;;;15.95;14.27;;;;;;;;;;5084026;28;20064;-84
2023/05/08 00:13:26;;;;;;;16.05;14.38;;;;;;;;;;5083316;28;20048;-84
2023/05/08 00:15:52;;;;;;;15.93;14.27;;;;;;;;;;5083652;28;20115;-83
2023/05/08 00:18:18;;;;;;;16.08;14.48;;;;;;;;;;5084177;28;20407;-83
2023/05/08 00:20:44;;;;;;;16.70;15.00;;;;;;;;;;5083071;28;20047;-83
2023/05/08 00:23:10;;;;;;;19.17;15.18;;;;;;;;;;5084317;28;20465;-83
2023/05/08 00:25:36;;;;;;;16.42;14.73;;;;;;;;;;5083645;28;20114;-82
2023/05/08 00:28:02;;;;;;;16.83;14.98;;;;;;;;;;5084633;28;20036;-83
2023/05/08 00:30:28;;;;;;;16.70;15.00;;;;;;;;;;5087348;28;20044;-82
2023/05/08 00:32:54;;;;;;;16.58;14.98;;;;;;;;;;5085137;28;20037;-84
2023/05/08 00:35:20;;;;;;;16.23;14.45;;;;;;;;;;5085808;28;20053;-83
2023/05/08 00:37:46;;;;;;;15.75;14.20;;;;;;;;;;5085710;28;20086;-83
2023/05/08 00:40:13;;;;;;;17.67;15.65;;;;;;;;;;5084347;28;20418;-83
2023/05/08 00:42:39;;;;;;;16.88;15.07;;;;;;;;;;5082891;28;20045;-83
2023/05/08 00:45:05;;;;;;;16.48;14.73;;;;;;;;;;5083775;28;20495;-84
2023/05/08 00:47:32;;;;;;;16.98;15.18;;;;;;;;;;5084203;28;20063;-83
2023/05/08 00:49:58;;;;;;;17.55;15.57;;;;;;;;;;5085483;28;20041;-83
2023/05/08 00:52:25;;;;;;;16.90;15.20;;;;;;;;;;5086699;28;20056;-83
2023/05/08 00:54:52;;;;;;;17.65;15.02;;;;;;;;;;5085409;28;20127;-83
2023/05/08 00:57:18;;;;;;;17.45;15.65;;;;;;;;;;5082272;28;20475;-83
2023/05/08 00:59:45;;;;;;;16.75;14.95;;;;;;;;;;5082382;28;20491;-83
2023/05/08 01:02:12;;;;;;;18.42;15.23;;;;;;;;;;5084805;28;20418;-83
2023/05/08 01:04:38;;;;;;;16.65;14.95;;;;;;;;;;5085004;28;20045;-83
2023/05/08 01:07:04;;;;;;;16.08;14.35;;;;;;;;;;5086276;28;20055;-83
2023/05/08 01:09:31;;;;;;;17.05;15.35;;;;;;;;;;5085076;28;20044;-83
2023/05/08 01:12:09;;;;;;;18.52;15.55;;;;;;;;;;5085666;28;20110;-83
2023/05/08 01:18:13;;;;;;;17.65;15.85;;;;;;;;;;5085522;28;20102;-83
2023/05/08 01:20:43;;;;;;;18.65;15.02;;;;;;;;;;5083316;28;20071;-83
2023/05/08 01:23:22;;;;;;;16.60;14.50;;;;;;;;;;5085309;28;20062;-83
2023/05/08 01:25:48;;;;;;;16.95;15.23;;;;;;;;;;5072344;28;20503;-83
2023/05/08 01:28:26;;;;;;;17.65;15.85;;;;;;;;;;5083958;28;20049;-83
2023/05/08 01:31:02;;;;;;;16.13;14.45;;;;;;;;;;5082742;28;20056;-83
2023/05/08 01:33:46;;;;;;;17.05;15.25;;;;;;;;;;5084861;28;20040;-83
2023/05/08 01:36:22;;;;;;;16.35;14.65;;;;;;;;;;5084091;28;20040;-84
2023/05/08 01:38:54;;;;;;;16.50;14.80;;;;;;;;;;5083154;28;20086;-84
2023/05/08 01:41:28;;;;;;;17.00;15.07;;;;;;;;;;5085588;28;20040;-83
2023/05/08 01:43:57;;;;;;;17.17;14.68;;;;;;;;;;5075073;28;20099;-83
2023/05/08 01:46:24;;;;;;;16.60;14.77;;;;;;;;;;5087862;28;20040;-83
2023/05/08 01:49:04;;;;;;;16.35;14.65;;;;;;;;;;5085604;28;20048;-83
2023/05/08 01:51:35;;;;;;;15.85;14.25;;;;;;;;;;5086193;28;20041;-83
2023/05/08 01:54:04;;;;;;;17.00;15.30;;;;;;;;;;5083197;28;20053;-82
2023/05/08 01:56:31;;;;;;;17.42;15.60;;;;;;;;;;5082510;28;20510;-84
2023/05/08 01:58:58;;;;;;;16.98;15.27;;;;;;;;;;5078472;28;20043;-82
2023/05/08 02:01:25;;;;;;;16.30;14.63;;;;;;;;;;5083507;28;20049;-82
2023/05/08 02:03:52;;;;;;;17.00;15.30;;;;;;;;;;5089446;28;20070;-81
2023/05/08 02:06:19;;;;;;;16.30;14.63;;;;;;;;;;5094033;28;20045;-83
2023/05/08 02:08:46;;;;;;;16.92;15.20;;;;;;;;;;5090339;28;20051;-82
2023/05/08 02:11:14;;;;;;;16.60;14.90;;;;;;;;;;5085461;28;20040;-82
2023/05/08 02:13:41;;;;;;;17.13;15.40;;;;;;;;;;5083538;28;20039;-82
2023/05/08 02:16:08;;;;;;;17.92;16.13;;;;;;;;;;5085852;28;20051;-82
2023/05/08 02:18:35;;;;;;;17.25;15.45;;;;;;;;;;5083851;28;20083;-82
2023/05/08 02:21:03;;;;;;;17.90;16.00;;;;;;;;;;5085774;28;20483;-82
2023/05/08 02:23:30;;;;;;;16.27;14.68;;;;;;;;;;5084279;28;20044;-83
2023/05/08 02:25:57;;;;;;;17.00;14.93;;;;;;;;;;5075475;28;20045;-82
2023/05/08 02:28:23;;;;;;;19.88;16.02;;;;;;;;;;5082698;28;20045;-83
2023/05/08 02:30:51;;;;;;;17.63;15.90;;;;;;;;;;5085217;28;20534;-83
2023/05/08 02:33:17;;;;;;;16.25;14.65;;;;;;;;;;5085057;28;20387;-84
2023/05/08 02:35:44;;;;;;;17.20;15.30;;;;;;;;;;5084672;28;20037;-83
2023/05/08 02:38:11;;;;;;;16.25;14.43;;;;;;;;;;5084736;28;20055;-82
2023/05/08 02:40:39;;;;;;;15.85;14.25;;;;;;;;;;5082053;28;20045;-83
2023/05/08 02:43:06;;;;;;;19.25;15.18;;;;;;;;;;5071018;28;20056;-83
2023/05/08 02:46:01;;;;;;;16.15;14.45;;;;;;;;;;5082366;28;20044;-83
2023/05/08 02:48:38;;;;;;;15.82;14.23;;;;;;;;;;5063537;28;20052;-83
2023/05/08 02:51:10;;;;;;;16.50;14.77;;;;;;;;;;5084050;28;20044;-83
2023/05/08 02:53:37;;;;;;;16.23;14.63;;;;;;;;;;5081920;28;20055;-83
2023/05/08 02:56:25;;;;;;;16.45;14.75;;;;;;;;;;5083742;28;20075;-83
2023/05/08 02:59:12;;;;;;;17.30;15.60;;;;;;;;;;5001190;28;20054;-82
2023/05/08 03:01:58;;;;;;;16.98;15.20;;;;;;;;;;5001122;28;20065;-83
2023/05/08 03:04:31;;;;;;;17.10;15.25;;;;;;;;;;5000835;28;20448;-81
2023/05/08 03:06:58;;;;;;;16.38;14.68;;;;;;;;;;4997272;28;20050;-82
2023/05/08 03:09:26;;;;;;;17.52;15.63;;;;;;;;;;5001457;28;20047;-82
2023/05/08 03:11:57;;;;;;;17.48;15.68;;;;;;;;;;5001973;28;20406;-83
2023/05/08 03:14:24;;;;;;;17.90;16.10;;;;;;;;;;5001063;28;20077;-83
2023/05/08 03:16:51;;;;;;;18.65;16.20;;;;;;;;;;5000886;28;20186;-84
2023/05/08 03:19:22;;;;;;;17.23;15.52;;;;;;;;;;5002308;28;20047;-83
2023/05/08 03:21:48;;;;;;;17.38;15.63;;;;;;;;;;5003328;28;20050;-83
2023/05/08 03:24:15;;;;;;;17.90;16.00;;;;;;;;;;5000557;28;20179;-83
2023/05/08 03:26:42;;;;;;;17.92;14.77;;;;;;;;;;5001166;28;20583;-83
2023/05/08 03:29:08;;;;;;;16.88;15.20;;;;;;;;;;5002064;28;20050;-84
2023/05/08 03:31:34;;;;;;;16.55;14.88;;;;;;;;;;5000474;28;20058;-84
2023/05/08 03:34:01;;;;;;;18.42;16.05;;;;;;;;;;5001117;28;20038;-83
2023/05/08 03:36:28;;;;;;;17.33;15.50;;;;;;;;;;5061665;28;20044;-81
2023/05/08 03:38:54;;;;;;;18.83;15.27;;;;;;;;;;5081569;28;20041;-83
2023/05/08 03:41:21;;;;;;;16.95;15.25;;;;;;;;;;5081014;28;20040;-83
2023/05/08 03:43:47;;;;;;;17.20;14.93;;;;;;;;;;5081874;28;20032;-83
2023/05/08 03:46:14;;;;;;;18.75;15.50;;;;;;;;;;5081372;28;20045;-83
2023/05/08 03:48:41;;;;;;;17.33;15.25;;;;;;;;;;5081562;28;20052;-82
2023/05/08 03:51:07;;;;;;;17.10;15.30;;;;;;;;;;5081283;28;20048;-83
2023/05/08 03:53:33;;;;;;;16.63;14.88;;;;;;;;;;5079340;28;20048;-83
2023/05/08 03:56:00;;;;;;;18.83;15.32;;;;;;;;;;5086679;28;20133;-84
2023/05/08 03:58:28;;;;;;;16.98;15.15;;;;;;;;;;5084079;28;20041;-84
2023/05/08 04:00:58;;;;;;;16.70;15.00;;;;;;;;;;5081839;28;20055;-83
2023/05/08 04:03:27;;;;;;;16.35;14.55;;;;;;;;;;5080178;28;20048;-84
2023/05/08 04:11:06;;;;;;;15.70;14.10;;;;;;;;;;5065835;28;20435;-78
2023/05/08 04:13:33;;;;;;;16.23;14.52;;;;;;;;;;5073115;28;20036;-78
2023/05/08 04:16:08;;;;;;;15.82;14.23;;;;;;;;;;5065442;28;20083;-77
2023/05/08 04:18:37;;;;;;;16.52;14.13;;;;;;;;;;5055891;28;20187;-78
2023/05/08 04:21:07;;;;;;;19.95;14.82;;;;;;;;;;5057034;28;20052;-79
2023/05/08 04:23:34;;;;;;;16.75;14.43;;;;;;;;;;5054103;28;20402;-77
2023/05/08 04:26:02;;;;;;;18.10;15.00;;;;;;;;;;5057042;28;20048;-78
2023/05/08 04:28:28;;;;;;;15.93;13.70;;;;;;;;;;5073152;28;20044;-78
2023/05/08 04:30:56;;;;;;;16.05;14.35;;;;;;;;;;5072776;28;20048;-78
2023/05/08 04:33:22;;;;;;;18.85;15.00;;;;;;;;;;5072614;28;20739;-78
2023/05/08 04:35:49;;;;;;;15.85;14.18;;;;;;;;;;5073282;28;20080;-78
2023/05/08 04:38:15;;;;;;;15.93;14.27;;;;;;;;;;5071958;28;20047;-78
2023/05/08 04:40:41;;;;;;;15.43;13.77;;;;;;;;;;5062276;28;20048;-80
2023/05/08 04:43:07;;;;;;;16.02;14.40;;;;;;;;;;5089321;28;20045;-79
2023/05/08 04:45:33;;;;;;;16.00;14.30;;;;;;;;;;5073257;28;20067;-78
2023/05/08 04:47:59;;;;;;;16.20;14.50;;;;;;;;;;5067206;28;20121;-77
2023/05/08 04:50:26;;;;;;;16.15;14.40;;;;;;;;;;5046491;28;20127;-79
2023/05/08 04:52:52;;;;;;;15.40;13.68;;;;;;;;;;5066092;28;20048;-79
2023/05/08 04:55:18;;;;;;;14.95;13.45;;;;;;;;;;5063881;28;20056;-79
2023/05/08 04:57:44;;;;;;;14.80;13.25;;;;;;;;;;5070317;28;20071;-78
2023/05/08 05:00:11;;;;;;;16.08;13.10;;;;;;;;;;5053141;28;20051;-79
2023/05/08 05:02:37;;;;;;;15.23;13.63;;;;;;;;;;5069400;28;20049;-78
2023/05/08 05:05:03;;;;;;;14.63;12.45;;;;;;;;;;5051658;28;20051;-79
2023/05/08 05:07:29;;;;;;;16.85;12.98;;;;;;;;;;5069286;28;20052;-79
2023/05/08 05:09:55;;;;;;;14.38;12.52;;;;;;;;;;5030516;28;20189;-79
2023/05/08 05:12:21;;;;;;;16.58;13.35;;;;;;;;;;5071437;28;20045;-79
2023/05/08 05:14:47;;;;;;;14.65;13.07;;;;;;;;;;5076192;28;20052;-79
2023/05/08 05:17:13;;;;;;;14.70;13.20;;;;;;;;;;5076204;28;20040;-80
2023/05/08 05:19:39;;;;;;;15.32;13.40;;;;;;;;;;5077015;28;20052;-79
2023/05/08 05:22:07;;;;;;;13.93;12.10;;;;;;;;;;5071065;28;20086;-79
2023/05/08 05:24:34;;;;;;;15.38;12.88;;;;;;;;;;5073155;28;20110;-79
2023/05/08 05:27:01;;;;;;;14.55;13.10;;;;;;;;;;5071944;28;20048;-79
2023/05/08 05:29:27;;;;;;;14.40;12.77;;;;;;;;;;5075967;28;20059;-79
2023/05/08 05:31:53;;;;;;;14.02;12.57;;;;;;;;;;5062901;28;20401;-79
2023/05/08 05:34:20;;;;;;;15.32;13.35;;;;;;;;;;5055773;28;20044;-79
2023/05/08 05:36:46;;;;;;;14.98;13.40;;;;;;;;;;5071400;28;20488;-79
2023/05/08 05:39:13;;;;;;;13.52;12.13;;;;;;;;;;5072401;28;20054;-80
2023/05/08 05:41:41;;;;;;;13.48;11.48;;;;;;;;;;5078241;28;20048;-79
2023/05/08 05:44:07;;;;;;;12.50;11.10;;;;;;;;;;5079558;28;20045;-79
2023/05/08 05:46:33;;;;;;;11.52;10.43;;;;;;;;;;5070327;28;20418;-79
2023/05/08 05:48:59;;;;;;;11.10;9.65;;;;;;;;;;5076881;28;20072;-79
2023/05/08 05:51:26;;;;;;;12.85;9.75;;;;;;;;;;5081237;28;20041;-78
2023/05/08 05:53:52;;;;;;;11.45;9.23;;;;;;;;;;5080655;28;20040;-78
2023/05/08 05:56:19;;;;;;;10.43;9.32;;;;;;;;;;5079671;28;20063;-78
2023/05/08 05:58:45;;;;;;;10.35;8.75;;;;;;;;;;5075039;28;20119;-78
2023/05/08 06:01:11;;;;;;;10.32;8.80;;;;;;;;;;5071905;28;20493;-79
2023/05/08 06:03:37;;;;;;;10.25;9.23;;;;;;;;;;5068607;28;20119;-79
2023/05/08 06:06:04;;;;;;;9.63;8.50;;;;;;;;;;5077873;28;20047;-79
2023/05/08 06:08:30;;;;;;;10.23;8.63;;;;;;;;;;5078552;28;20041;-78
2023/05/08 06:10:56;;;;;;;9.32;8.43;;;;;;;;;;5077583;28;20056;-78
2023/05/08 06:13:22;;;;;;;10.50;9.18;;;;;;;;;;5077027;28;20032;-78
2023/05/08 06:15:49;;;;;;;11.20;8.80;;;;;;;;;;5071066;28;20056;-78
2023/05/08 06:18:15;;;;;;;9.80;8.80;;;;;;;;;;5075828;28;20056;-78
2023/05/08 06:20:42;;;;;;;9.80;8.80;;;;;;;;;;5078051;28;20051;-78
2023/05/08 06:23:08;;;;;;;10.10;9.10;;;;;;;;;;5075625;28;20036;-78
2023/05/08 06:25:34;;;;;;;10.40;8.55;;;;;;;;;;5078500;28;20041;-78
2023/05/08 06:28:00;;;;;;;11.10;9.05;;;;;;;;;;5071756;28;20086;-78
2023/05/08 06:30:26;;;;;;;9.68;8.68;;;;;;;;;;5071088;28;20131;-78
2023/05/08 06:32:52;;;;;;;11.18;9.07;;;;;;;;;;5074748;28;20290;-79
2023/05/08 06:35:19;;;;;;;11.40;10.20;;;;;;;;;;5050319;28;20044;-79
2023/05/08 06:37:45;;;;;;;11.18;9.43;;;;;;;;;;5078768;28;20044;-79
2023/05/08 06:40:12;;;;;;;10.75;9.65;;;;;;;;;;5080944;28;20051;-78
2023/05/08 06:42:39;;;;;;;11.13;9.93;;;;;;;;;;5079129;28;20070;-79
2023/05/08 06:45:05;;;;;;;11.88;10.40;;;;;;;;;;5063984;28;20040;-79
2023/05/08 06:47:31;;;;;;;10.95;9.75;;;;;;;;;;5078786;28;20041;-79
2023/05/08 06:49:57;;;;;;;11.45;10.25;;;;;;;;;;5072676;28;20044;-80
2023/05/08 06:52:24;;;;;;;11.25;9.80;;;;;;;;;;5081286;28;20104;-80
2023/05/08 06:54:50;;;;;;;10.93;9.82;;;;;;;;;;5077775;28;20103;-79
2023/05/08 06:57:16;;;;;;;10.45;9.45;;;;;;;;;;5071232;28;20098;-78
2023/05/08 06:59:42;;;;;;;9.95;8.93;;;;;;;;;;5060387;28;20047;-78
2023/05/08 07:02:09;;;;;;;10.80;9.50;;;;;;;;;;5042456;28;20093;-78
2023/05/08 07:04:35;;;;;;;10.30;9.15;;;;;;;;;;5070282;28;20044;-77
2023/05/08 07:07:01;;;;;;;10.23;8.98;;;;;;;;;;5079996;28;20044;-79
2023/05/08 07:09:28;;;;;;;10.63;9.60;;;;;;;;;;5078664;28;20057;-78
2023/05/08 07:11:54;;;;;;;11.32;9.55;;;;;;;;;;5078394;28;20048;-78
2023/05/08 07:14:20;;;;;;;11.27;9.80;;;;;;;;;;5075788;28;20037;-79
2023/05/08 07:16:46;;;;;;;11.00;9.70;;;;;;;;;;5079627;28;20059;-78
2023/05/08 07:19:12;;;;;;;11.05;9.95;;;;;;;;;;5079908;28;20067;-78
2023/05/08 07:21:39;;;;;;;11.35;10.25;;;;;;;;;;5075868;28;20051;-79
2023/05/08 07:24:05;;;;;;;10.60;9.60;;;;;;;;;;5074770;28;20049;-78
2023/05/08 07:26:31;;;;;;;11.23;10.13;;;;;;;;;;5074040;28;20051;-78
2023/05/08 07:28:57;;;;;;;11.20;10.10;;;;;;;;;;5075489;28;20094;-78
2023/05/08 07:31:23;;;;;;;13.02;10.23;;;;;;;;;;5056776;28;20478;-78
2023/05/08 07:33:49;;;;;;;11.75;10.50;;;;;;;;;;5073759;28;20116;-77
2023/05/08 07:36:15;;;;;;;12.48;10.65;;;;;;;;;;5071411;28;20040;-78
2023/05/08 07:38:41;;;;;;;11.40;10.20;;;;;;;;;;5074437;28;20044;-78
2023/05/08 07:41:08;;;;;;;13.20;11.05;;;;;;;;;;5075486;28;20051;-78
2023/05/08 07:43:34;;;;;;;11.50;10.35;;;;;;;;;;5057063;28;20102;-78
2023/05/08 07:46:00;;;;;;;11.90;10.75;;;;;;;;;;5072365;28;20040;-79
2023/05/08 07:48:26;;;;;;;12.55;10.70;;;;;;;;;;5072875;28;20044;-78
2023/05/08 07:50:52;;;;;;;11.85;10.57;;;;;;;;;;5074553;28;20055;-78
2023/05/08 07:53:18;;;;;;;11.30;10.20;;;;;;;;;;5073402;28;20041;-78
2023/05/08 07:55:44;;;;;;;11.73;10.38;;;;;;;;;;5074148;28;20044;-78
2023/05/08 07:58:10;;;;;;;12.30;10.43;;;;;;;;;;5076786;28;20048;-78
2023/05/08 08:00:36;;;;;;;11.57;10.38;;;;;;;;;;5074604;28;20092;-78
2023/05/08 08:03:03;;;;;;;11.48;10.27;;;;;;;;;;5074785;28;20048;-78
2023/05/08 08:05:29;;;;;;;11.45;10.25;;;;;;;;;;5070651;28;20052;-78
2023/05/08 08:07:55;;;;;;;11.68;10.57;;;;;;;;;;5073169;28;20048;-78
2023/05/08 08:10:21;;;;;;;14.90;10.43;;;;;;;;;;5055535;28;20060;-78
2023/05/08 08:12:47;;;;;;;11.80;10.70;;;;;;;;;;5056380;28;20044;-78
2023/05/08 08:15:13;;;;;;;12.10;10.90;;;;;;;;;;5063184;28;20049;-78
2023/05/08 08:17:39;;;;;;;12.27;10.80;;;;;;;;;;5067473;28;20045;-78
2023/05/08 08:20:06;;;;;;;12.70;10.95;;;;;;;;;;5075327;28;20052;-78
2023/05/08 08:22:32;;;;;;;12.02;10.73;;;;;;;;;;5074589;28;20521;-79
2023/05/08 08:24:58;;;;;;;13.30;11.25;;;;;;;;;;5073632;28;20059;-78
2023/05/08 08:27:24;;;;;;;13.15;11.32;;;;;;;;;;5070332;28;20076;-78
2023/05/08 08:29:50;;;;;;;12.52;11.23;;;;;;;;;;5072920;28;20045;-77
2023/05/08 08:32:16;;;;;;;14.20;11.63;;;;;;;;;;5055729;28;20059;-78
2023/05/08 08:34:42;;;;;;;14.90;11.48;;;;;;;;;;5070455;28;20434;-79
2023/05/08 08:37:11;;;;;;;12.70;11.18;;;;;;;;;;5079121;28;20044;-79
2023/05/08 08:39:37;;;;;;;13.68;12.10;;;;;;;;;;5075071;28;20507;-79
2023/05/08 08:42:03;;;;;;;13.10;11.73;;;;;;;;;;5070993;28;20072;-79
2023/05/08 08:44:30;;;;;;;14.13;12.48;;;;;;;;;;5076535;28;20044;-78
2023/05/08 08:46:58;;;;;;;14.35;11.40;;;;;;;;;;5075828;28;20564;-78
2023/05/08 08:49:29;;;;;;;12.68;11.48;;;;;;;;;;5072377;28;20041;-78
2023/05/08 08:51:58;;;;;;;13.00;11.73;;;;;;;;;;5059543;28;20090;-78
2023/05/08 08:54:27;;;;;;;14.70;12.65;;;;;;;;;;5062865;28;20045;-78
2023/05/08 08:56:55;;;;;;;14.40;12.65;;;;;;;;;;5082712;28;20044;-78
2023/05/08 08:59:23;;;;;;;14.48;12.98;;;;;;;;;;5061709;28;20036;-78
2023/05/08 09:01:52;;;;;;;14.00;12.52;;;;;;;;;;5062962;28;20048;-78
2023/05/08 09:04:18;;;;;;;14.10;12.65;;;;;;;;;;5055223;28;20051;-78
2023/05/08 09:06:44;;;;;;;13.98;12.48;;;;;;;;;;5079034;28;20041;-77
2023/05/08 09:09:12;;;;;;;14.82;13.00;;;;;;;;;;5069582;28;20056;-79
2023/05/08 09:11:39;;;;;;;13.98;12.65;;;;;;;;;;5082920;28;20071;-79
2023/05/08 09:14:06;;;;;;;14.15;12.65;;;;;;;;;;5089544;28;20041;-79
2023/05/08 09:16:32;;;;;;;16.40;12.90;;;;;;;;;;5090325;28;20048;-79
2023/05/08 09:18:58;;;;;;;14.32;12.90;;;;;;;;;;5084873;28;20053;-78
2023/05/08 09:21:24;;;;;;;14.55;13.05;;;;;;;;;;5078458;28;20393;-78
2023/05/08 09:24:00;;;;;;;16.00;13.95;;;;;;;;;;5078551;28;20048;-78
2023/05/08 09:26:32;;;;;;;16.00;14.30;;;;;;;;;;5066232;28;20037;-77
2023/05/08 09:29:16;;;;;;;16.13;13.70;;;;;;;;;;5058612;28;20045;-78
2023/05/08 09:31:44;;;;;;;15.55;13.80;;;;;;;;;;5062155;28;20032;-78
2023/05/08 09:34:11;;;;;;;14.95;13.40;;;;;;;;;;5064786;28;20047;-78
2023/05/08 09:36:41;;;;;;;14.80;13.30;;;;;;;;;;5078432;28;20402;-78
2023/05/08 09:39:13;;;;;;;14.95;13.45;;;;;;;;;;5077931;28;20390;-78
2023/05/08 09:41:39;;;;;;;15.07;13.52;;;;;;;;;;5077113;28;20166;-78
2023/05/08 09:44:06;;;;;;;16.13;13.60;;;;;;;;;;5058121;28;20045;-78
2023/05/08 09:46:33;;;;;;;15.57;13.40;;;;;;;;;;5059257;28;20052;-78
2023/05/08 09:49:00;;;;;;;15.63;14.13;;;;;;;;;;5059589;28;20052;-78
2023/05/08 09:51:27;;;;;;;15.65;14.02;;;;;;;;;;5071498;28;20199;-78
2023/05/08 09:53:54;;;;;;;16.10;14.45;;;;;;;;;;5079102;28;20045;-78
2023/05/08 09:56:38;;;;;;;17.27;15.57;;;;;;;;;;5078500;28;20144;-78
2023/05/08 09:59:05;;;;;;;16.17;14.50;;;;;;;;;;5077904;28;20048;-78
2023/05/08 10:01:35;;;;;;;15.40;13.82;;;;;;;;;;5076365;28;20106;-79
2023/05/08 10:04:02;;;;;;;16.02;14.35;;;;;;;;;;5076509;28;20128;-80
2023/05/08 10:06:29;;;;;;;16.48;14.77;;;;;;;;;;5066561;28;20051;-79
2023/05/08 10:09:09;;;;;;;15.00;13.50;;;;;;;;;;5077300;28;20052;-79
2023/05/08 10:11:35;;;;;;;13.93;12.02;;;;;;;;;;5079074;28;20043;-67
2023/05/08 10:14:01;;;;;;;15.15;13.55;;;;;;;;;;5073171;28;20040;-68
2023/05/08 10:16:28;;;;;;;15.32;13.73;;;;;;;;;;5050936;28;20179;-68
2023/05/08 10:18:59;;;;;;;15.63;13.30;;;;;;;;;;5060057;28;20043;-68
2023/05/08 10:21:25;;;;;;;;;;;;;;;;;;5074588;28;20040;-69
2023/05/08 10:23:54;;;;;;;15.65;13.88;;;;;;;;;;5056209;28;19927;-68
2023/05/08 10:26:24;;;;;;;16.60;15.00;;;;;;;;;;5073540;28;20045;-68
2023/05/08 10:29:04;;;;;;;16.70;15.10;;;;;;;;;;5051011;28;20497;-71
2023/05/08 10:31:33;;;;;;;15.98;14.38;;;;;;;;;;5067016;28;20032;-68
2023/05/08 10:34:03;;;;;;;16.13;14.52;;;;;;;;;;5047379;28;20048;-68
2023/05/08 10:36:31;;;;;;;17.38;15.57;;;;;;;;;;5064041;28;20518;-68
2023/05/08 10:38:58;;;;;;;16.60;15.00;;;;;;;;;;5074297;28;20071;-68
2023/05/08 10:41:25;;;;;;;16.60;15.00;;;;;;;;;;5073342;28;20050;-68
2023/05/08 10:43:51;;;;;;;17.77;15.65;;;;;;;;;;5073150;28;20328;-69
2023/05/08 10:46:38;;;;;;;17.35;15.60;;;;;;;;;;5073861;28;20052;-69
2023/05/08 10:49:07;;;;;;;15.32;13.93;;;;;;;;;;5056959;28;20048;-69
2023/05/08 10:51:45;;;;;;;14.43;12.85;;;;;;;;;;5063397;28;20064;-69
2023/05/08 10:54:30;;;;;;;14.50;13.10;;;;;;;;;;5054283;28;20049;-69
2023/05/08 10:57:09;;;;;;;16.98;13.93;;;;;;;;;;5053762;28;20045;-69
2023/05/08 10:59:36;;;;;;;16.40;14.80;;;;;;;;;;5065537;28;20044;-73
2023/05/08 11:02:07;;;;;;;15.88;14.27;;;;;;;;;;5066450;28;20112;-69
2023/05/08 11:04:33;;;;;;;15.93;13.75;;;;;;;;;;5068702;28;20036;-70
2023/05/08 11:07:00;;;;;;;16.02;14.50;;;;;;;;;;5071982;28;20067;-70
2023/05/08 11:09:30;;;;;;;16.98;14.63;;;;;;;;;;5072931;28;20429;-70
2023/05/08 11:12:02;;;;;;;15.85;14.25;;;;;;;;;;5072870;28;20041;-71
2023/05/08 11:14:28;;;;;;;16.48;14.68;;;;;;;;;;5068940;28;20131;-71
2023/05/08 11:16:58;;;;;;;16.05;14.35;;;;;;;;;;5054933;28;20037;-70
2023/05/08 11:19:25;;;;;;;18.20;15.07;;;;;;;;;;5035219;28;20063;-70
2023/05/08 11:22:10;;;;;;;16.67;14.75;;;;;;;;;;5067915;28;20072;-71
2023/05/08 11:24:36;;;;;;;16.10;14.45;;;;;;;;;;5071906;28;20036;-70
2023/05/08 11:27:03;;;;;;;15.90;14.30;;;;;;;;;;5073382;28;20383;-70
2023/05/08 11:29:29;;;;;;;15.82;14.23;;;;;;;;;;5070241;28;20486;-71
2023/05/08 11:31:55;;;;;;;16.02;14.43;;;;;;;;;;5072666;28;20045;-71
2023/05/08 11:34:40;;;;;;;15.00;13.60;;;;;;;;;;5073209;28;20063;-71
2023/05/08 11:37:09;;;;;;;14.70;12.82;;;;;;;;;;5053253;28;20128;-71
2023/05/08 11:39:35;;;;;;;13.75;12.35;;;;;;;;;;5064523;28;20032;-72
2023/05/08 11:42:20;;;;;;;15.13;12.93;;;;;;;;;;5072779;28;20055;-72
2023/05/08 11:44:46;;;;;;;14.15;12.77;;;;;;;;;;5071457;28;20037;-72
2023/05/08 11:47:16;;;;;;;14.93;12.98;;;;;;;;;;5072663;28;20498;-72
2023/05/08 11:49:42;;;;;;;14.43;13.02;;;;;;;;;;5071286;28;20036;-72
2023/05/08 11:52:08;;;;;;;14.55;13.07;;;;;;;;;;5072512;28;20044;-72
2023/05/08 11:54:35;;;;;;;16.27;14.57;;;;;;;;;;5070935;28;20040;-71
2023/05/08 11:57:02;;;;;;;17.08;15.35;;;;;;;;;;5072839;28;20040;-71
2023/05/08 11:59:28;;;;;;;16.80;15.10;;;;;;;;;;5069963;28;20075;-71
2023/05/08 12:01:54;;;;;;;14.95;13.43;;;;;;;;;;5066320;28;20044;-70
2023/05/08 12:04:20;;;;;;;16.63;15.02;;;;;;;;;;5072473;28;20045;-70
2023/05/08 12:06:47;;;;;;;15.20;13.57;;;;;;;;;;5053554;28;20056;-70
2023/05/08 12:09:14;;;;;;;16.52;14.90;;;;;;;;;;5063728;28;20060;-70
2023/05/08 12:11:42;;;;;;;16.77;14.90;;;;;;;;;;5071816;28;20044;-70
2023/05/08 12:14:09;;;;;;;17.50;15.70;;;;;;;;;;5071855;28;20128;-70
2023/05/08 12:16:36;;;;;;;15.52;13.18;;;;;;;;;;5060028;28;20048;-70
2023/05/08 12:19:02;;;;;;;13.38;11.95;;;;;;;;;;5070010;28;20531;-70
2023/05/08 12:21:28;;;;;;;13.65;11.93;;;;;;;;;;5071809;28;20064;-70
2023/05/08 12:23:55;;;;;;;17.48;13.63;;;;;;;;;;5070320;28;20044;-70
2023/05/08 12:26:21;;;;;;;14.43;12.90;;;;;;;;;;5071989;28;20040;-71
2023/05/08 12:28:53;;;;;;;14.35;12.77;;;;;;;;;;5072436;28;20048;-71
2023/05/08 12:31:19;;;;;;;15.75;13.07;;;;;;;;;;5071590;28;20052;-71
2023/05/08 12:33:45;;;;;;;15.18;13.60;;;;;;;;;;5068105;28;20044;-72
2023/05/08 12:36:11;;;;;;;15.60;13.90;;;;;;;;;;5070586;28;20044;-72
2023/05/08 12:38:38;;;;;;;16.65;14.98;;;;;;;;;;5071830;28;20045;-70
2023/05/08 12:41:07;;;;;;;15.38;13.77;;;;;;;;;;5072156;28;20497;-71
2023/05/08 12:43:34;;;;;;;15.70;14.10;;;;;;;;;;5071893;28;20440;-71
2023/05/08 12:46:01;;;;;;;14.55;13.15;;;;;;;;;;5071259;28;20041;-71
2023/05/08 12:48:27;;;;;;;15.25;13.50;;;;;;;;;;5071929;28;20040;-71
2023/05/08 12:50:53;;;;;;;14.05;12.63;;;;;;;;;;5071596;28;20048;-70
2023/05/08 12:53:20;;;;;;;19.50;14.02;;;;;;;;;;5071184;28;20505;-71
2023/05/08 12:55:56;;;;;;;14.07;12.02;;;;;;;;;;5071592;28;20068;-71
2023/05/08 12:58:26;;;;;;;15.13;12.20;;;;;;;;;;5070962;28;20406;-71
2023/05/08 13:00:53;;;;;;;14.57;13.07;;;;;;;;;;5053266;28;20052;-71
2023/05/08 13:03:29;;;;;;;15.75;14.15;;;;;;;;;;5044201;28;20052;-72
2023/05/08 13:05:56;;;;;;;16.25;14.65;;;;;;;;;;5068058;28;20416;-71
2023/05/08 13:08:30;;;;;;;16.05;14.30;;;;;;;;;;5063380;28;20045;-71
2023/05/08 13:10:56;;;;;;;16.75;13.80;;;;;;;;;;5055145;28;20064;-73
2023/05/08 13:13:24;;;;;;;13.30;11.05;;;;;;;;;;5063413;28;20049;-72
2023/05/08 13:15:51;;;;;;;14.30;11.35;;;;;;;;;;5066434;28;20449;-71
2023/05/08 13:18:17;;;;;;;14.15;11.55;;;;;;;;;;5069999;28;20045;-71
2023/05/08 13:20:43;;;;;;;12.52;10.73;;;;;;;;;;5067339;28;20548;-70
2023/05/08 13:23:10;;;;;;;14.27;12.18;;;;;;;;;;5070808;28;20128;-72
2023/05/08 13:25:36;;;;;;;12.27;11.02;;;;;;;;;;5068255;28;20415;-71
2023/05/08 13:28:03;;;;;;;10.45;9.43;;;;;;;;;;5070515;28;20045;-71
2023/05/08 13:30:29;;;;;;;12.10;10.07;;;;;;;;;;5053638;28;20041;-70
2023/05/08 13:32:55;;;;;;;12.30;10.25;;;;;;;;;;5063281;28;20076;-73
2023/05/08 13:35:22;;;;;;;11.95;10.13;;;;;;;;;;5052472;28;20398;-71
2023/05/08 13:37:48;;;;;;;11.57;10.27;;;;;;;;;;5074494;28;20404;-71
2023/05/08 13:40:15;;;;;;;12.02;10.30;;;;;;;;;;5074268;28;20543;-71
2023/05/08 13:42:41;;;;;;;12.10;10.88;;;;;;;;;;5073845;28;20457;-71
2023/05/08 13:45:09;;;;;;;15.02;13.52;;;;;;;;;;5075007;28;20040;-71
2023/05/08 13:47:35;;;;;;;16.85;11.65;;;;;;;;;;5074216;28;20044;-71
2023/05/08 13:50:02;;;;;;;13.10;11.27;;;;;;;;;;5055802;28;20040;-71
2023/05/08 13:52:29;;;;;;;13.25;11.68;;;;;;;;;;5057218;28;20435;-71
2023/05/08 13:54:55;;;;;;;14.27;12.70;;;;;;;;;;5056443;28;20083;-71
2023/05/08 13:57:21;;;;;;;15.90;11.68;;;;;;;;;;5054666;28;20399;-70
2023/05/08 13:59:47;;;;;;;13.00;10.50;;;;;;;;;;5055528;28;20044;-70
2023/05/08 14:02:14;;;;;;;17.55;11.52;;;;;;;;;;5074160;28;20056;-70
2023/05/08 14:04:40;;;;;;;13.60;11.75;;;;;;;;;;5074840;28;20135;-71
2023/05/08 14:07:06;;;;;;;14.20;12.70;;;;;;;;;;5072581;28;20533;-71
2023/05/08 14:09:32;;;;;;;15.95;12.70;;;;;;;;;;5060818;28;20079;-71
2023/05/08 14:11:59;;;;;;;13.40;12.00;;;;;;;;;;5073447;28;20098;-70
2023/05/08 14:14:25;;;;;;;13.65;12.25;;;;;;;;;;5072558;28;20059;-70
2023/05/08 14:16:51;;;;;;;14.98;13.48;;;;;;;;;;5072504;28;20052;-70
2023/05/08 14:19:17;;;;;;;15.25;13.73;;;;;;;;;;5070996;28;20063;-71
2023/05/08 14:21:44;;;;;;;17.58;13.95;;;;;;;;;;5068148;28;20048;-70
2023/05/08 14:24:10;;;;;;;19.52;14.38;;;;;;;;;;5072685;28;20040;-70
2023/05/08 14:26:37;;;;;;;18.35;15.25;;;;;;;;;;5073970;28;20044;-70
2023/05/08 14:29:03;;;;;;;19.08;15.73;;;;;;;;;;5056943;28;20098;-71
2023/05/08 14:31:29;;;;;;;19.67;15.13;;;;;;;;;;5069893;28;20513;-71